YOU ARE USING AN OUTDATED BROWSER
It is limiting your browsing experience. Please upgrade to a modern browser.

MASAN (Port)

Country: Korea Country: Korea (KR)
Latitude / Longitude: 35.1799297° / 128.5909045° Show on Map Show on Map
Local Time:  1500980314
Un/locode: KRMAS
Vessels in Port: 4
Expected Arrivals: 21

Recent Arrivals & Departures


Vessel Name
Arrival (UTC)
Arrival (LT)
Arrival (MT)
Arrival
Departure (UTC)
Departure (LT)
Departure (MT)
Departure
Vessel Type: Cargo Vessels  GENIUS STAR I 1500857400 1500857400 1500857400 1 day, 10 hours ago 1500977760 1501010160 1500977760 42 minutes ago
Vessel Type: Cargo Vessels  GRANDE BALTIMORA 1500932340 1500932340 1500932340 13 hours, 19 minutes ago 1500971700 1501004100 1500971700 2 hours, 23 minutes ago
32 YONG DEUK HO 1500955620 1500955620 1500955620 6 hours, 51 minutes ago 1500959160 1500991560 1500959160 5 hours, 52 minutes ago
Vessel Type: Tugs & Special Craft  YONG MA NO.1 1500957840 1500957840 1500957840 6 hours, 14 minutes ago
Vessel Type: Tugs & Special Craft  YONG MA NO.1 1500932520 1500932520 1500932520 13 hours, 16 minutes ago 1500954240 1500986640 1500954240 7 hours, 14 minutes ago
Vessel Type: Cargo Vessels  MORNING STAR 1500806820 1500806820 1500806820 2 days ago 1500951960 1500984360 1500951960 7 hours, 52 minutes ago
Vessel Type: Pleasure Craft  DAE JEONG 1500935940 1500935940 1500935940 12 hours, 19 minutes ago 1500950940 1500983340 1500950940 8 hours, 9 minutes ago
Vessel Type: Tugs & Special Craft  NO.3 YONG MA 1500950580 1500950580 1500950580 8 hours, 15 minutes ago
Vessel Type: Tugs & Special Craft  NO.3 YONG MA 1500940860 1500940860 1500940860 10 hours, 57 minutes ago 1500950040 1500982440 1500950040 8 hours, 24 minutes ago
Vessel Type: Cargo Vessels  KOREX 5001 1500866760 1500866760 1500866760 1 day, 7 hours ago 1500946440 1500978840 1500946440 9 hours, 24 minutes ago

Expected Arrivals


Vessel Name
Scheduled Arrival (UTC)
Scheduled Arrival (LT)
Scheduled Arrival (MT)
Scheduled Arrival
Estimated Arrival (UTC)
Estimated Arrival (LT)
Estimated Arrival (MT)
Estimated Arrival
Vessel Type: Cargo Vessels  MING SHAN 1500726000 1500758400 1500758400 2 days, 22 hours ago 1501056480 1501056480 1501056480 in 21 hours, 9 minutes
Vessel Type: Cargo Vessels  PATARA 1500780600 1500813000 1500813000 2 days, 7 hours ago 1501001940 1501001940 1501001940 in 6 hours
Vessel Type: Cargo Vessels  PERMATA PRIMA 1500800400 1500832800 1500832800 2 days, 1 hour ago 1500981720 1500981720 1500981720 in 23 minutes
Vessel Type: Cargo Vessels  CSC ZHI HAI 1500948000 1500980400 1500980400 8 hours, 58 minutes ago 1500956040 1500956040 1500956040 6 hours, 44 minutes ago
Vessel Type: Cargo Vessels  BBC AMETHYST 1500958800 1500991200 1500991200 5 hours, 58 minutes ago
Vessel Type: Cargo Vessels  QING XIANG 1500998400 1501030800 1501030800 in 5 hours, 1 minute 1500980040 1500980040 1500980040 4 minutes ago
Vessel Type: Cargo Vessels  NARUTO STRAIT 1501005600 1501038000 1501038000 in 7 hours, 1 minute 1500975900 1500975900 1500975900 1 hour, 13 minutes ago
Vessel Type: Cargo Vessels  DONGBANG CHALLENGER 1501009200 1501041600 1501041600 in 8 hours, 1 minute 1500973800 1500973800 1500973800 1 hour, 48 minutes ago
Vessel Type: Cargo Vessels  HOEGH COPENHAGEN 1501048800 1501081200 1501081200 in 19 hours, 1 minute 1501047600 1501047600 1501047600 in 18 hours, 41 minutes
Vessel Type: Cargo Vessels  MORNING COMPASS 1501099200 1501131600 1501131600 in 1 day, 9 hours 1501067640 1501067640 1501067640 in 1 day

Wind Forecast


    
Time (UTC)
Speed
Direction
Temperature
1500973200 17 knots 87° 30°C
1500984000 15 knots 61° 27°C
1500994800 14 knots 50° 27°C
1501005600 13 knots 39° 26°C
1501016400 12 knots 37° 26°C
1501027200 13 knots 43° 27°C
1501038000 15 knots 73° 29°C
1501048800 17 knots 87° 29°C
1501059600 18 knots 80° 28°C
1501070400 18 knots 61° 27°C
1501081200 14 knots 48° 26°C
1501092000 12 knots 31° 26°C
1501102800 12 knots 31° 25°C
1501113600 12 knots 43° 26°C
1501124400 12 knots 80° 29°C
1501135200 14 knots 110° 29°C
1501146000 15 knots 106° 28°C